createdAt,value
2019-05-06T00:00:59.538Z,6.79
2019-05-06T00:01:58.172Z,6.79
2019-05-06T00:02:58.084Z,6.78
2019-05-06T00:04:00.867Z,6.84
2019-05-06T00:04:57.911Z,6.74
2019-05-06T00:05:57.824Z,6.79
2019-05-06T00:06:57.737Z,6.85
2019-05-06T00:07:57.659Z,6.77
2019-05-06T00:08:57.567Z,6.78
2019-05-06T00:09:57.480Z,6.82
2019-05-06T00:10:57.394Z,6.84
2019-05-06T00:11:57.311Z,6.84
2019-05-06T00:12:57.226Z,6.89
2019-05-06T00:13:57.138Z,6.81
2019-05-06T00:14:57.052Z,6.78
2019-05-06T00:15:56.968Z,6.82
2019-05-06T00:16:58.644Z,6.82
2019-05-06T00:17:56.805Z,6.67
2019-05-06T00:18:56.710Z,6.78
2019-05-06T00:19:57.113Z,6.78
2019-05-06T00:20:57.558Z,6.72
2019-05-06T00:21:56.453Z,6.77
2019-05-06T00:22:56.370Z,6.75
2019-05-06T00:23:56.280Z,6.66
2019-05-06T00:24:56.198Z,6.69
2019-05-06T00:25:56.114Z,6.67
2019-05-06T00:26:57.629Z,6.70
2019-05-06T00:27:55.943Z,6.62
2019-05-06T00:28:55.857Z,6.54
2019-05-06T00:29:55.776Z,6.56
2019-05-06T00:31:08.619Z,6.52
2019-05-06T00:31:55.601Z,6.44
2019-05-06T00:32:55.514Z,6.56
2019-05-06T00:33:55.430Z,6.44
2019-05-06T00:34:55.344Z,6.48
2019-05-06T00:35:55.258Z,6.41
2019-05-06T00:36:55.171Z,6.51
2019-05-06T00:37:55.096Z,6.56
2019-05-06T00:38:55.000Z,6.49
2019-05-06T00:39:54.916Z,6.54
2019-05-06T00:40:54.832Z,6.57
2019-05-06T00:41:54.745Z,6.56
2019-05-06T00:42:54.663Z,6.64
2019-05-06T00:43:54.764Z,6.66
2019-05-06T00:44:54.485Z,6.56
2019-05-06T00:45:54.426Z,6.57
2019-05-06T00:46:54.634Z,6.64
2019-05-06T00:47:54.232Z,6.60
2019-05-06T00:48:54.416Z,6.57
2019-05-06T00:49:54.662Z,6.59
2019-05-06T00:50:53.970Z,6.59
2019-05-06T00:51:55.001Z,6.59
2019-05-06T00:52:54.012Z,6.54
2019-05-06T00:53:54.380Z,6.56
2019-05-06T00:54:54.701Z,6.60
2019-05-06T00:55:53.877Z,6.59
2019-05-06T00:56:54.142Z,6.56
2019-05-06T00:57:54.443Z,6.45
2019-05-06T00:58:54.406Z,6.46
2019-05-06T00:59:53.847Z,6.46
2019-05-06T01:00:53.818Z,6.52
2019-05-06T01:01:53.892Z,6.51
2019-05-06T01:02:54.222Z,6.36
2019-05-06T01:03:53.685Z,6.39
2019-05-06T01:04:54.140Z,6.41
2019-05-06T01:05:54.222Z,6.35
2019-05-06T01:06:54.502Z,6.48
2019-05-06T01:07:54.730Z,6.46
2019-05-06T01:08:54.319Z,6.45
2019-05-06T01:09:54.158Z,6.46
2019-05-06T01:10:54.297Z,6.49
2019-05-06T01:11:54.076Z,6.48
2019-05-06T01:12:54.345Z,6.51
2019-05-06T01:13:52.008Z,6.48
2019-05-06T01:14:54.364Z,6.51
2019-05-06T01:15:51.826Z,6.48
2019-05-06T01:16:51.738Z,6.42
2019-05-06T01:17:53.739Z,6.44
2019-05-06T01:18:51.567Z,6.46
2019-05-06T01:19:53.959Z,6.41
2019-05-06T01:20:51.393Z,6.42
2019-05-06T01:21:51.309Z,6.41
2019-05-06T01:22:51.222Z,6.51
2019-05-06T01:23:51.139Z,6.51
2019-05-06T01:24:51.061Z,6.35
2019-05-06T01:25:50.966Z,6.35
2019-05-06T01:26:50.878Z,6.35
2019-05-06T01:27:50.794Z,6.39
2019-05-06T01:28:50.709Z,6.35
2019-05-06T01:29:50.623Z,6.36
2019-05-06T01:30:50.534Z,6.36
2019-05-06T01:31:50.452Z,6.31
2019-05-06T01:32:50.363Z,6.36
2019-05-06T01:33:50.291Z,6.33
2019-05-06T01:34:50.195Z,6.28
2019-05-06T01:35:50.106Z,6.26
2019-05-06T01:36:50.024Z,6.28
2019-05-06T01:37:49.939Z,6.19
2019-05-06T01:38:49.848Z,6.16
2019-05-06T01:39:49.757Z,6.07
2019-05-06T01:40:49.673Z,6.14
2019-05-06T01:41:49.593Z,6.01
2019-05-06T01:42:49.503Z,6.16
2019-05-06T01:43:49.419Z,6.07
2019-05-06T01:44:49.332Z,6.05
2019-05-06T01:45:49.242Z,6.01
2019-05-06T01:46:49.158Z,5.98
2019-05-06T01:47:49.071Z,5.99
2019-05-06T01:48:48.988Z,5.98
2019-05-06T01:49:48.898Z,5.91
2019-05-06T01:50:48.812Z,5.93
2019-05-06T01:51:48.726Z,5.93
2019-05-06T01:52:48.637Z,5.94
2019-05-06T01:53:48.552Z,6.02
2019-05-06T01:54:48.470Z,6.04
2019-05-06T01:55:48.380Z,6.09
2019-05-06T01:56:48.294Z,5.98
2019-05-06T01:57:48.206Z,6.12
2019-05-06T01:58:48.125Z,6.08
2019-05-06T01:59:48.034Z,6.07
2019-05-06T02:00:47.947Z,6.14
2019-05-06T02:02:47.788Z,6.05
2019-05-06T02:03:47.686Z,6.08
2019-05-06T02:04:47.604Z,6.11
2019-05-06T02:05:47.522Z,6.07
2019-05-06T02:06:47.429Z,6.11
2019-05-06T02:07:47.341Z,5.91
2019-05-06T02:08:47.255Z,5.90
2019-05-06T02:09:47.169Z,5.98
2019-05-06T02:10:47.120Z,5.99
2019-05-06T02:11:48.010Z,5.98
2019-05-06T02:12:46.907Z,5.94
2019-05-06T02:13:46.824Z,6.01
2019-05-06T02:14:46.737Z,5.94
2019-05-06T02:15:46.648Z,5.93
2019-05-06T02:16:46.561Z,5.86
2019-05-06T02:17:46.613Z,5.76
2019-05-06T02:18:46.389Z,5.79
2019-05-06T02:19:46.303Z,5.71
2019-05-06T02:20:46.215Z,5.68
2019-05-06T02:21:46.128Z,5.61
2019-05-06T02:22:46.048Z,5.56
2019-05-06T02:23:45.958Z,5.59
2019-05-06T02:24:45.870Z,5.51
2019-05-06T02:25:45.784Z,5.59
2019-05-06T02:26:45.696Z,5.57
2019-05-06T02:27:45.615Z,5.61
2019-05-06T02:28:45.525Z,5.57
2019-05-06T02:29:45.442Z,5.65
2019-05-06T02:30:45.610Z,5.66
2019-05-06T02:31:46.143Z,5.65
2019-05-06T02:32:45.413Z,5.68
2019-05-06T02:33:45.095Z,5.69
2019-05-06T02:34:45.889Z,5.69
2019-05-06T02:35:45.577Z,5.80
2019-05-06T02:36:45.546Z,5.86
2019-05-06T02:37:46.444Z,5.79
2019-05-06T02:38:48.025Z,5.80
2019-05-06T02:39:44.579Z,5.66
2019-05-06T02:40:44.493Z,5.80
2019-05-06T02:41:44.402Z,5.76
2019-05-06T02:42:44.316Z,5.64
2019-05-06T02:43:44.227Z,5.69
2019-05-06T02:44:44.497Z,5.68
2019-05-06T02:45:44.057Z,5.56
2019-05-06T02:46:44.265Z,5.65
2019-05-06T02:47:43.881Z,5.64
2019-05-06T02:48:43.796Z,5.61
2019-05-06T02:49:44.411Z,5.53
2019-05-06T02:50:43.620Z,5.59
2019-05-06T02:51:44.237Z,5.65
2019-05-06T02:52:44.196Z,5.59
2019-05-06T02:53:43.363Z,5.66
2019-05-06T02:54:43.287Z,5.66
2019-05-06T02:55:43.212Z,5.76
2019-05-06T02:56:43.706Z,5.66
2019-05-06T02:57:43.874Z,5.65
2019-05-06T02:58:43.659Z,5.68
2019-05-06T02:59:44.150Z,5.72
2019-05-06T03:00:43.211Z,5.80
2019-05-06T03:01:43.379Z,5.66
2019-05-06T03:02:46.863Z,5.59
2019-05-06T03:03:43.667Z,5.66
2019-05-06T03:04:43.772Z,5.61
2019-05-06T03:05:44.013Z,5.64
2019-05-06T03:06:44.689Z,5.59
2019-05-06T03:07:43.487Z,5.64
2019-05-06T03:08:43.501Z,5.71
2019-05-06T03:09:44.484Z,5.59
2019-05-06T03:10:44.227Z,5.64
2019-05-06T03:11:43.787Z,5.65
2019-05-06T03:12:43.004Z,5.73
2019-05-06T03:13:43.786Z,5.73
2019-05-06T03:14:43.643Z,5.57
2019-05-06T03:15:43.388Z,5.64
2019-05-06T03:16:43.929Z,5.64
2019-05-06T03:17:43.514Z,5.65
2019-05-06T03:18:43.322Z,5.68
2019-05-06T03:19:45.702Z,5.66
2019-05-06T03:20:43.888Z,5.62
2019-05-06T03:21:44.510Z,5.59
2019-05-06T03:22:43.515Z,5.56
2019-05-06T03:23:43.365Z,5.59
2019-05-06T03:24:43.430Z,5.44
2019-05-06T03:25:43.737Z,5.47
2019-05-06T03:26:43.756Z,5.33
2019-05-06T03:27:46.498Z,5.46
2019-05-06T03:28:40.322Z,5.35
2019-05-06T03:29:40.234Z,5.32
2019-05-06T03:30:45.247Z,5.30
2019-05-06T03:31:41.327Z,5.30
2019-05-06T03:33:14.188Z,5.26
2019-05-06T03:33:58.440Z,5.20
2019-05-06T03:35:00.591Z,5.26
2019-05-06T03:35:55.987Z,5.32
2019-05-06T03:36:42.250Z,5.17
2019-05-06T03:37:39.538Z,5.21
2019-05-06T03:38:39.453Z,5.25
2019-05-06T03:39:39.368Z,5.25
2019-05-06T03:40:41.922Z,5.20
